Latest Weather Observations for Jabiru

IDD60801

Issued at 8:01 pm CST Monday 20 February 2017 (issued every 30 minutes, with the page automatically refreshed every 10 minutes)

About weather observations | Map of weather stations | Latest weather observations for NT | Other Formats
Station Details ID: 014198 Name: JABIRU AIRPORT Lat: -12.66 Lon: 132.89 Height: 26.5 m
Data from the previous 72 hours. | See also: Recent months at Jabiru
Date/Time
CST
Temp
°C
App
Temp
°C
Dew
Point
°C
Rel
Hum
%
Delta-T
°C
Wind Press
QNH
hPa
Press
MSL
hPa
Rain since
9am
mm
Dir  Spd
km/h
Gust
km/h
Spd
kts
Gust
kts
20/08:00pm 29.6 33.6 22.8 67 4.7 WSW 6 7 3 4 1007.9 1007.7 0.0
20/07:30pm 30.2 34.1 22.6 63 5.2 WSW 6 7 3 4 1007.7 1007.5 0.0
20/07:00pm 31.0 34.6 22.3 60 5.9 W 7 11 4 6 1007.3 1007.1 0.0
20/06:30pm 31.8 34.8 21.9 55 6.7 W 9 11 5 6 1006.8 1006.6 0.0
20/06:00pm 32.7 35.1 21.5 51 7.6 W 11 13 6 7 1006.4 1006.2 0.0
20/05:30pm 33.1 35.5 20.9 48 8.2 WSW 9 15 5 8 1006.0 1005.8 0.0
20/05:00pm 33.5 35.6 21.0 48 8.4 WSW 11 17 6 9 1005.7 1005.5 0.0
20/04:30pm 33.5 36.7 21.3 48 8.3 WSW 6 11 3 6 1005.5 1005.3 0.0
20/04:00pm 33.3 35.5 21.1 48 8.2 W 11 22 6 12 1005.4 1005.2 0.0
20/03:30pm 33.3 35.2 19.7 44 9.0 SW 9 15 5 8 1005.6 1005.4 0.0
20/03:00pm 33.7 36.2 21.8 49 8.1 SW 11 17 6 9 1005.8 1005.6 0.0
20/02:30pm 32.9 34.3 20.4 47 8.4 SSW 13 19 7 10 1006.2 1006.0 0.0
20/02:00pm 32.6 35.0 21.5 52 7.5 SW 11 20 6 11 1006.4 1006.2 0.0
20/01:30pm 32.2 34.1 21.4 53 7.3 SW 13 19 7 10 1007.0 1006.8 0.0
20/01:00pm 31.9 34.1 21.1 52 7.3 SSW 11 19 6 10 1007.6 1007.4 0.0
20/12:30pm 31.6 34.9 22.6 59 6.2 SSW 9 22 5 12 1008.2 1007.9 0.0
20/12:00pm 31.2 33.5 21.4 56 6.6 S 11 19 6 10 1008.3 1008.0 0.0
20/11:30am 30.9 33.4 21.7 58 6.2 WSW 11 19 6 10 1008.8 1008.6 0.0
20/11:00am 30.2 32.6 21.6 60 5.8 WSW 11 19 6 10 1008.8 1008.6 0.0
20/10:30am 29.0 32.0 22.0 66 4.7 WSW 9 17 5 9 1009.3 1009.1 0.0
20/10:00am 28.3 32.3 23.7 76 3.2 SW 9 15 5 8 1009.4 1009.2 0.0
20/09:30am 28.0 32.3 24.2 80 2.6 W 9 15 5 8 1009.5 1009.3 0.0
20/09:00am 26.9 30.8 24.2 85 1.9 WSW 11 15 6 8 1009.6 1009.4 26.8
20/08:30am 25.7 30.3 24.8 95 0.6 WNW 9 13 5 7 1009.4 1009.2 26.8
20/08:00am 24.9 29.8 24.7 99 0.1 NW 7 11 4 6 1008.5 1008.3 26.8
20/07:30am 24.5 30.1 24.3 99 0.1 WNW 2 7 1 4 1007.7 1007.5 26.8
20/07:00am 24.3 30.2 24.1 99 0.1 CALM 0 4 0 2 1007.3 1007.1 26.8
20/06:30am 24.1 29.7 23.6 97 0.3 CALM 0 0 0 0 1007.2 1007.0 26.6
20/06:00am 24.2 29.6 23.9 98 0.2 SSW 2 6 1 3 1007.3 1007.1 26.6
20/05:30am 24.3 29.3 23.8 97 0.3 WSW 4 6 2 3 1007.5 1007.3 26.6
20/05:00am 24.4 30.1 23.7 96 0.5 CALM 0 0 0 0 1007.3 1007.1 26.6
20/04:30am 24.4 30.1 23.7 96 0.5 CALM 0 0 0 0 1007.2 1007.0 26.6
20/04:00am 24.4 30.1 23.7 96 0.5 CALM 0 0 0 0 1006.9 1006.7 26.6
20/03:30am 24.5 30.2 23.8 96 0.5 CALM 0 4 0 2 1006.9 1006.7 26.6
20/03:00am 24.7 30.3 24.2 97 0.3 W 2 9 1 5 1006.9 1006.7 26.6
20/02:30am 24.6 30.4 23.9 96 0.5 CALM 0 0 0 0 1006.7 1006.5 26.6
20/02:00am 24.7 30.5 24.0 96 0.5 CALM 0 0 0 0 1007.2 1007.0 26.6
20/01:30am 24.7 30.4 23.8 95 0.6 CALM 0 0 0 0 1007.5 1007.3 26.6
20/01:00am 24.7 30.5 24.0 96 0.5 CALM 0 0 0 0 1008.1 1007.8 26.6
20/12:30am 24.7 30.4 23.8 95 0.6 CALM 0 0 0 0 1008.4 1008.2 26.6
20/12:00am 24.6 30.3 23.7 95 0.6 CALM 0 0 0 0 1008.2 1007.9 26.6
 
Date/Time
CST
Temp
°C
App
Temp
°C
Dew
Point
°C
Rel
Hum
%
Delta-T
°C
Wind Press
QNH
hPa
Press
MSL
hPa
Rain since
9am
mm
Dir  Spd
km/h
Gust
km/h
Spd
kts
Gust
kts
19/11:30pm 24.7 30.4 23.7 94 0.7 CALM 0 0 0 0 1007.8 1007.6 26.6
19/11:00pm 24.7 28.7 23.7 94 0.7 NW 9 11 5 6 1007.9 1007.7 26.6
19/10:30pm 24.4 28.7 23.7 96 0.5 WNW 7 9 4 5 1007.7 1007.5 26.4
19/10:00pm 24.2 28.9 23.3 95 0.6 NW 4 6 2 3 1007.6 1007.4 26.2
19/09:30pm 24.0 28.3 23.3 96 0.5 S 6 9 3 5 1007.6 1007.4 26.0
19/09:00pm 24.0 27.7 23.3 96 0.5 W 9 13 5 7 1008.1 1007.8 25.8
19/08:30pm 23.9 27.2 22.5 92 0.9 S 9 19 5 10 1008.5 1008.3 17.4
19/08:00pm 25.0 26.4 22.9 88 1.4 SE 20 41 11 22 1008.1 1007.8 11.2
19/07:55pm 26.1 26.9 23.2 84 2.0 SE 24 41 13 22 1007.6 1007.4 9.0
19/07:30pm 26.2 31.2 24.8 92 1.0 ESE 7 9 4 5 1006.3 1006.1 8.6
19/07:00pm 26.3 31.6 24.9 92 1.0 NE 6 9 3 5 1005.2 1005.0 8.6
19/06:30pm 26.2 31.0 24.4 90 1.2 ENE 7 11 4 6 1004.8 1004.6 8.6
19/06:00pm 26.5 31.2 24.9 91 1.1 NE 9 13 5 7 1004.9 1004.7 8.6
19/05:30pm 26.1 30.5 23.8 87 1.6 N 7 13 4 7 1005.0 1004.8 8.6
19/05:00pm 26.2 28.6 24.2 89 1.4 NW 19 30 10 16 1004.5 1004.3 8.6
19/04:30pm 28.0 31.6 23.8 78 2.9 N 11 17 6 9 1004.1 1003.9 5.0
19/04:00pm 28.5 32.3 24.1 77 3.0 NW 11 17 6 9 1004.2 1004.0 5.0
19/03:30pm 27.4 30.5 24.1 82 2.3 WSW 15 26 8 14 1004.1 1003.9 5.0
19/03:00pm 30.2 36.1 25.9 78 3.1 SSW 6 11 3 6 1004.6 1004.4 3.6
19/02:30pm 29.1 35.1 26.3 85 2.0 SSW 7 11 4 6 1004.8 1004.6 3.6
19/02:00pm 28.6 33.1 25.2 82 2.4 S 11 17 6 9 1005.3 1005.1 3.6
19/01:30pm 31.4 33.6 24.8 68 4.7 WNW 22 30 12 16 1005.9 1005.7 0.0
19/01:00pm 30.4 33.1 24.8 72 3.9 W 19 28 10 15 1006.6 1006.4 0.0
19/12:30pm 30.0 32.6 24.6 73 3.8 WNW 19 28 10 15 1007.2 1007.0 0.0
19/12:00pm 29.4 31.6 24.3 74 3.6 W 20 33 11 18 1007.9 1007.7 0.0
19/11:30am 27.8 31.9 24.0 80 2.6 WNW 9 15 5 8 1008.6 1008.4 0.0
19/11:00am 27.2 31.0 23.4 80 2.6 W 9 11 5 6 1009.1 1008.9 0.0
19/10:30am 26.6 30.0 22.7 79 2.6 WNW 9 11 5 6 1009.4 1009.2 0.0
19/10:00am 26.3 29.8 22.8 81 2.4 W 9 13 5 7 1009.5 1009.3 0.0
19/09:30am 25.7 29.7 22.8 84 2.0 WSW 6 9 3 5 1009.3 1009.1 0.0
19/09:00am 25.2 29.3 22.9 87 1.6 W 6 7 3 4 1009.1 1008.9 29.6
19/08:30am 24.7 28.7 22.8 89 1.3 W 6 9 3 5 1008.8 1008.6 29.6
19/08:00am 24.2 27.9 22.6 91 1.1 WSW 7 11 4 6 1007.9 1007.7 29.6
19/07:30am 23.9 27.4 22.9 94 0.7 W 9 13 5 7 1007.6 1007.4 29.6
19/07:00am 23.8 27.4 23.0 95 0.5 W 9 13 5 7 1007.3 1007.1 29.6
19/06:30am 23.8 27.2 23.3 97 0.3 WNW 11 13 6 7 1007.3 1007.1 29.6
19/06:00am 23.7 27.6 23.0 96 0.5 WNW 7 9 4 5 1007.0 1006.8 29.6
19/05:30am 23.5 27.3 22.8 96 0.5 WNW 7 11 4 6 1006.6 1006.4 29.6
19/05:00am 23.4 27.3 22.6 95 0.5 NW 6 7 3 4 1006.6 1006.4 29.6
19/04:30am 23.3 27.5 22.5 95 0.5 SSE 4 7 2 4 1006.8 1006.6 29.6
19/04:00am 23.3 27.8 22.3 94 0.7 WNW 2 7 1 4 1006.9 1006.7 29.4
19/03:30am 23.4 26.4 22.6 95 0.5 NW 11 15 6 8 1007.7 1007.5 29.4
19/03:00am 23.6 27.2 23.1 97 0.3 NNW 9 13 5 7 1007.6 1007.4 29.2
19/02:30am 23.5 27.0 22.8 96 0.5 NW 9 13 5 7 1007.4 1007.2 29.2
19/02:00am 23.6 27.1 22.8 95 0.5 WNW 9 13 5 7 1007.8 1007.6 29.0
19/01:30am 23.7 26.5 23.0 96 0.5 W 13 17 7 9 1008.1 1007.8 27.6
19/01:00am 23.5 27.2 22.5 94 0.7 W 7 9 4 5 1008.8 1008.6 25.6
19/12:30am 23.7 28.5 22.9 95 0.5 W 2 7 1 4 1009.3 1009.1 25.2
19/12:00am 23.9 27.6 22.5 92 0.9 WSW 7 15 4 8 1010.3 1010.1 24.8
 
Date/Time
CST
Temp
°C
App
Temp
°C
Dew
Point
°C
Rel
Hum
%
Delta-T
°C
Wind Press
QNH
hPa
Press
MSL
hPa
Rain since
9am
mm
Dir  Spd
km/h
Gust
km/h
Spd
kts
Gust
kts
18/11:30pm 25.1 26.0 23.3 90 1.2 S 24 41 13 22 1010.7 1010.5 21.2
18/11:00pm 24.7 30.0 23.7 94 0.7 SW 2 6 1 3 1009.4 1009.2 21.0
18/10:30pm 24.5 28.8 23.3 93 0.8 S 6 9 3 5 1009.1 1008.9 21.0
18/10:00pm 24.2 28.7 23.0 93 0.8 ENE 4 7 2 4 1008.4 1008.2 21.0
18/09:30pm 24.1 27.0 23.1 94 0.7 E 13 15 7 8 1007.8 1007.6 21.0
18/09:00pm 24.0 27.9 23.0 94 0.7 W 7 9 4 5 1008.1 1007.8 21.0
18/08:30pm 23.5 25.8 22.1 92 0.9 NNE 13 20 7 11 1007.8 1007.6 21.0
18/08:00pm 23.7 26.2 22.5 93 0.8 N 13 20 7 11 1007.5 1007.3 21.0
18/07:30pm 23.3 26.0 21.4 89 1.3 WNW 9 17 5 9 1007.6 1007.4 19.2
18/07:11pm 22.5 20.6 21.0 91 1.0 W 32 54 17 29 1006.5 1006.3 17.8
18/07:00pm 23.7 20.3 21.4 87 1.5 W 41 61 22 33 1006.3 1006.1 8.0
18/06:52pm 27.6 27.2 22.3 73 3.6 NW 28 61 15 33 1006.0 1005.8 0.0
18/06:30pm 30.9 34.0 24.8 70 4.3 NNW 17 22 9 12 1005.3 1005.1 0.0
18/06:00pm 32.0 36.1 25.8 69 4.4 N 15 28 8 15 1005.5 1005.3 0.0
18/05:30pm 33.7 36.7 24.0 57 6.8 WNW 15 26 8 14 1004.9 1004.7 0.0
18/05:00pm 33.9 37.6 24.5 58 6.6 NW 13 22 7 12 1005.0 1004.8 0.0
18/04:30pm 34.4 37.6 24.9 57 6.7 WNW 17 22 9 12 1005.4 1005.2 0.0
18/04:00pm 34.1 36.8 24.1 56 7.0 WNW 17 26 9 14 1005.7 1005.5 0.0
18/03:30pm 33.4 36.4 24.0 58 6.6 W 15 20 8 11 1006.0 1005.8 0.0
18/03:00pm 33.5 36.8 23.8 57 6.8 W 13 19 7 10 1006.5 1006.3 0.0
18/02:30pm 33.3 35.3 23.6 56 6.8 WNW 19 24 10 13 1006.8 1006.6 0.0
18/02:00pm 33.1 36.3 24.3 60 6.2 W 15 52 8 28 1007.1 1006.9 0.0
18/01:30pm 32.8 36.3 24.8 62 5.7 WNW 15 24 8 13 1007.8 1007.6 0.0
18/01:00pm 32.2 34.4 24.0 62 5.7 WNW 19 26 10 14 1008.3 1008.0 0.0
18/12:30pm 31.7 35.1 24.0 63 5.4 WNW 13 22 7 12 1008.6 1008.4 0.0
18/12:00pm 31.1 33.8 23.5 64 5.3 WSW 15 20 8 11 1008.9 1008.7 0.0
18/11:30am 30.4 32.6 23.3 66 4.9 W 17 24 9 13 1009.2 1009.0 0.0
18/11:00am 30.4 33.5 24.8 72 3.9 WSW 17 28 9 15 1009.6 1009.4 0.0
18/10:30am 28.8 32.2 24.6 78 2.9 W 15 22 8 12 1010.2 1010.0 0.0
18/10:00am 28.6 32.3 25.2 82 2.4 WSW 15 20 8 11 1010.2 1010.0 0.0
18/09:30am 27.9 32.3 25.1 85 2.0 WSW 11 17 6 9 1010.3 1010.1 0.0
18/09:00am 26.7 31.5 24.4 87 1.6 WSW 7 11 4 6 1010.8 1010.6 32.0
18/08:30am 25.9 31.9 24.3 91 1.1 CALM 0 0 0 0 1010.6 1010.4 32.0
18/08:00am 24.7 30.3 23.5 93 0.8 CALM 0 0 0 0 1010.2 1010.0 32.0
18/07:30am 23.8 29.1 23.0 95 0.5 CALM 0 6 0 3 1010.2 1010.0 32.0
18/07:00am 23.3 28.3 22.5 95 0.5 CALM 0 6 0 3 1009.9 1009.7 32.0
18/06:30am 23.3 28.4 22.6 96 0.5 CALM 0 0 0 0 1009.8 1009.6 32.0
18/06:00am 23.2 28.1 22.4 95 0.5 CALM 0 0 0 0 1009.3 1009.1 32.0
18/05:30am 23.1 26.9 22.4 96 0.5 S 6 7 3 4 1009.2 1009.0 32.0
18/05:00am 23.0 26.7 22.2 95 0.5 W 6 7 3 4 1009.1 1008.9 32.0
18/04:30am 23.0 27.7 22.0 94 0.7 CALM 0 0 0 0 1008.8 1008.6 32.0
18/04:00am 23.0 27.3 22.0 94 0.7 NW 2 7 1 4 1008.7 1008.5 32.0
18/03:30am 22.8 27.4 21.8 94 0.7 CALM 0 0 0 0 1008.6 1008.4 32.0
18/03:00am 22.8 26.4 22.0 95 0.5 ENE 6 7 3 4 1009.0 1008.8 32.0
18/02:30am 22.7 26.1 22.0 96 0.5 ESE 7 9 4 5 1009.1 1008.9 31.8
18/02:00am 22.9 26.9 22.1 95 0.5 NE 4 7 2 4 1009.2 1009.0 31.0
18/01:30am 22.7 26.0 21.9 95 0.5 N 7 11 4 6 1009.7 1009.5 30.2
18/01:00am 22.8 25.8 22.0 95 0.5 W 9 11 5 6 1010.0 1009.8 28.4
18/12:30am 22.8 26.3 22.1 96 0.5 SSW 7 13 4 7 1010.6 1010.4 27.2
18/12:00am 22.7 25.7 21.9 95 0.5 WSW 9 13 5 7 1010.9 1010.7 25.2
 
Date/Time
CST
Temp
°C
App
Temp
°C
Dew
Point
°C
Rel
Hum
%
Delta-T
°C
Wind Press
QNH
hPa
Press
MSL
hPa
Rain since
9am
mm
Dir  Spd
km/h
Gust
km/h
Spd
kts
Gust
kts
17/11:30pm 22.7 25.7 21.9 95 0.5 W 9 17 5 9 1010.9 1010.7 23.2
17/11:00pm 22.6 24.9 21.4 93 0.8 WSW 11 15 6 8 1011.3 1011.1 23.0
17/10:30pm 23.0 24.2 21.5 91 1.0 WNW 17 22 9 12 1011.3 1011.1 22.0
17/10:00pm 23.1 26.2 22.1 94 0.7 SW 9 17 5 9 1010.6 1010.4 21.4
17/09:30pm 23.6 24.7 21.9 90 1.1 S 19 32 10 17 1010.7 1010.5 6.4
17/09:00pm 28.1 33.2 24.7 82 2.4 NNW 6 11 3 6 1009.3 1009.1 0.2
17/08:30pm 28.1 33.2 24.7 82 2.4 N 6 7 3 4 1009.0 1008.8 0.2

Other Formats:

Comma delimited format used in spreadsheet applications
http://www.bom.gov.au/fwo/IDD60801/IDD60801.94137.axf

JavaScript Object Notation format (JSON) in row-major order
http://www.bom.gov.au/fwo/IDD60801/IDD60801.94137.json